createdAt,value
2022-08-03T10:48:56.563Z,101581.41
2022-08-03T10:51:30.456Z,101570.16
2022-08-03T10:53:59.713Z,101564.59
2022-08-03T10:57:13.648Z,101572.00
2022-08-03T11:00:02.756Z,101569.63
2022-08-03T11:03:10.591Z,101559.13
2022-08-03T11:05:43.232Z,101561.59
2022-08-03T11:08:30.741Z,101552.22
2022-08-03T11:11:02.932Z,101559.59
2022-08-03T11:13:33.891Z,101551.94
2022-08-03T11:16:21.820Z,101557.97
2022-08-03T11:18:59.583Z,101550.31
2022-08-03T11:21:58.135Z,101557.19
2022-08-03T11:25:02.884Z,101554.06
2022-08-03T11:27:33.735Z,101554.81
2022-08-03T11:30:08.660Z,101556.56
2022-08-03T11:32:56.239Z,101568.78
2022-08-03T11:35:27.002Z,101547.13
2022-08-03T11:38:11.556Z,101553.06
2022-08-03T11:40:50.836Z,101553.00
2022-08-03T11:43:47.469Z,101549.41
2022-08-03T11:46:28.216Z,101552.34
2022-08-03T11:49:10.455Z,101547.63
2022-08-03T11:51:40.585Z,101558.53
2022-08-03T11:54:11.398Z,101549.38
2022-08-03T11:56:48.125Z,101544.22
2022-08-03T11:59:21.751Z,101547.44
2022-08-03T12:01:51.293Z,101552.09
2022-08-03T12:04:20.620Z,101553.78
2022-08-03T12:07:02.045Z,101549.69
2022-08-03T12:09:34.467Z,101549.00
2022-08-03T12:12:02.947Z,101554.06
2022-08-03T12:14:48.861Z,101555.09
2022-08-03T12:17:19.999Z,101550.22
2022-08-03T12:19:48.476Z,101555.94
2022-08-03T12:22:17.828Z,101544.41
2022-08-03T12:24:47.919Z,101549.91
2022-08-03T12:27:26.431Z,101545.00
2022-08-03T12:29:58.334Z,101550.19
2022-08-03T12:32:27.609Z,101545.06
2022-08-03T12:35:00.129Z,101547.00
2022-08-03T12:37:29.887Z,101538.59
2022-08-03T12:40:09.551Z,101530.63
2022-08-03T12:42:40.630Z,101530.53
2022-08-03T12:45:23.960Z,101532.69
2022-08-03T12:47:57.032Z,101534.03
2022-08-03T12:50:28.478Z,101539.69
2022-08-03T12:52:58.461Z,101527.84
2022-08-03T12:55:57.586Z,101536.41
2022-08-03T12:58:34.187Z,101540.66
2022-08-03T13:01:09.208Z,101530.50
2022-08-03T13:03:49.931Z,101526.13
2022-08-03T13:06:22.378Z,101530.59
2022-08-03T13:09:02.282Z,101526.84
2022-08-03T13:11:55.966Z,101533.38
2022-08-03T13:14:21.195Z,101524.59
2022-08-03T13:16:50.474Z,101527.00
2022-08-03T13:19:18.751Z,101520.00
2022-08-03T13:22:03.138Z,101516.00
2022-08-03T13:24:34.199Z,101517.88
2022-08-03T13:28:01.270Z,101519.81
2022-08-03T13:29:55.043Z,101511.69
2022-08-03T13:32:24.900Z,101518.69
2022-08-03T13:34:53.165Z,101513.84
2022-08-03T13:37:23.951Z,101508.66
2022-08-03T13:39:59.192Z,101509.44
2022-08-03T13:42:32.432Z,101510.22
2022-08-03T13:45:02.087Z,101505.84
2022-08-03T13:47:30.644Z,101505.63
2022-08-03T13:50:00.932Z,101510.16
2022-08-03T13:52:32.991Z,101517.97
2022-08-03T13:55:01.609Z,101512.56
2022-08-03T13:58:04.378Z,101510.09
2022-08-03T14:00:26.364Z,101506.34
2022-08-03T14:03:16.406Z,101506.78
2022-08-03T14:05:45.249Z,101510.91
2022-08-03T14:08:13.792Z,101498.75
2022-08-03T14:10:45.669Z,101503.66
2022-08-03T14:13:17.732Z,101505.78
2022-08-03T14:15:50.107Z,101509.25
2022-08-03T14:18:29.013Z,101503.31
2022-08-03T14:21:07.386Z,101506.81
2022-08-03T14:23:38.490Z,101504.84
2022-08-03T14:26:08.788Z,101502.59
2022-08-03T14:28:38.763Z,101497.16
2022-08-03T14:31:08.373Z,101495.09
2022-08-03T14:33:46.969Z,101509.16
2022-08-03T14:36:15.173Z,101494.66
2022-08-03T14:38:43.369Z,101498.81
2022-08-03T14:41:19.689Z,101502.81
2022-08-03T14:44:01.563Z,101504.91
2022-08-03T14:46:31.572Z,101505.06
2022-08-03T14:50:33.075Z,101501.72
2022-08-03T14:51:53.445Z,101498.38
2022-08-03T14:54:23.199Z,101503.13
2022-08-03T14:56:52.345Z,101495.75
2022-08-03T14:59:21.913Z,101494.63
2022-08-03T15:02:04.437Z,101499.66
2022-08-03T15:04:34.899Z,101491.66
2022-08-03T15:07:03.270Z,101491.72
2022-08-03T15:09:31.683Z,101488.69
2022-08-03T15:12:00.373Z,101481.03
2022-08-03T15:14:33.140Z,101484.72
2022-08-03T15:17:05.845Z,101476.47
2022-08-03T15:20:02.752Z,101476.97
2022-08-03T15:22:24.828Z,101482.72
2022-08-03T15:24:56.063Z,101481.94
2022-08-03T15:27:24.553Z,101474.03
2022-08-03T15:30:05.255Z,101486.47
2022-08-03T15:32:38.529Z,101475.03
2022-08-03T15:35:07.710Z,101477.94
2022-08-03T15:37:36.112Z,101470.28
2022-08-03T15:40:05.467Z,101474.78
2022-08-03T15:42:34.618Z,101477.09
2022-08-03T15:45:04.710Z,101475.97
2022-08-03T15:47:33.025Z,101470.63
2022-08-03T15:50:02.699Z,101471.16
2022-08-03T15:52:35.972Z,101476.25
2022-08-03T15:55:05.130Z,101467.81
2022-08-03T15:59:04.203Z,101473.72
2022-08-03T16:00:33.901Z,101468.41
2022-08-03T16:03:02.522Z,101464.75
2022-08-03T16:05:30.958Z,101468.16
2022-08-03T16:08:03.822Z,101465.59
2022-08-03T16:10:33.991Z,101467.22
2022-08-03T16:13:02.325Z,101462.31
2022-08-03T16:15:31.985Z,101467.09
2022-08-03T16:18:00.727Z,101467.25
2022-08-03T16:20:31.307Z,101464.88
2022-08-03T16:23:11.545Z,101466.94
2022-08-03T16:25:41.736Z,101459.97
2022-08-03T16:28:14.642Z,101459.84
2022-08-03T16:30:47.207Z,101456.19
2022-08-03T16:33:17.827Z,101454.63
2022-08-03T16:35:46.831Z,101454.78
2022-08-03T16:38:18.899Z,101459.66
2022-08-03T16:40:51.548Z,101463.06
2022-08-03T16:43:22.039Z,101448.81
2022-08-03T16:45:52.156Z,101456.56
2022-08-03T16:48:21.210Z,101458.81
2022-08-03T16:50:49.604Z,101454.63
2022-08-03T16:53:33.227Z,101457.47
2022-08-03T16:56:10.069Z,101455.44
2022-08-03T16:58:42.274Z,101459.31
2022-08-03T17:01:21.830Z,101459.59
2022-08-03T17:04:01.475Z,101450.47
2022-08-03T17:06:36.134Z,101443.25
2022-08-03T17:09:09.107Z,101448.06
2022-08-03T17:11:43.957Z,101444.09
2022-08-03T17:14:14.338Z,101443.19
2022-08-03T17:16:52.201Z,101446.59
2022-08-03T17:19:24.628Z,101456.50
2022-08-03T17:22:04.230Z,101452.50
2022-08-03T17:24:35.112Z,101454.16
2022-08-03T17:27:09.013Z,101456.38
2022-08-03T17:29:45.782Z,101454.41
2022-08-03T17:32:21.276Z,101459.75
2022-08-03T17:34:50.201Z,101446.34
2022-08-03T17:37:50.205Z,101452.44
2022-08-03T17:40:17.477Z,101452.28
2022-08-03T17:42:50.525Z,101454.97
2022-08-03T17:45:20.916Z,101456.78
2022-08-03T17:47:57.083Z,101461.47
2022-08-03T17:50:40.362Z,101460.63
2022-08-03T17:53:15.174Z,101460.31
2022-08-03T17:56:04.409Z,101460.16
2022-08-03T17:58:54.591Z,101452.19
2022-08-03T18:02:01.806Z,101461.00
2022-08-03T18:04:43.256Z,101461.59
2022-08-03T18:07:40.891Z,101466.25
2022-08-03T18:10:15.242Z,101466.84
2022-08-03T18:12:52.210Z,101459.13
2022-08-03T18:15:30.262Z,101460.94
2022-08-03T18:18:10.340Z,101466.16
2022-08-03T18:20:42.685Z,101461.94
2022-08-03T18:23:36.571Z,101461.84
2022-08-03T18:26:07.071Z,101454.53
2022-08-03T18:28:38.309Z,101457.72
2022-08-03T18:31:07.773Z,101458.69
2022-08-03T18:36:31.957Z,101452.69
2022-08-03T18:39:04.386Z,101456.34
2022-08-03T18:41:35.042Z,101460.38
2022-08-03T18:44:06.643Z,101458.50
2022-08-03T18:46:51.526Z,101454.84
2022-08-03T18:49:35.384Z,101447.38
2022-08-03T18:52:12.645Z,101459.09
2022-08-03T18:55:02.523Z,101461.88
2022-08-03T18:57:44.492Z,101447.41
2022-08-03T19:00:24.120Z,101461.47
2022-08-03T19:03:02.462Z,101452.53
2022-08-03T19:06:02.240Z,101452.28
2022-08-03T19:08:46.066Z,101459.75
2022-08-03T19:11:28.037Z,101464.00
2022-08-03T19:14:00.310Z,101468.88
2022-08-03T19:16:38.653Z,101462.13
2022-08-03T19:19:14.353Z,101460.81
2022-08-03T19:21:42.697Z,101462.94
2022-08-03T19:24:14.841Z,101466.75
2022-08-03T19:26:44.119Z,101461.88
2022-08-03T19:29:18.769Z,101464.84
2022-08-03T19:31:59.089Z,101467.38
2022-08-03T19:34:32.621Z,101476.72
2022-08-03T19:37:03.113Z,101470.22
2022-08-03T19:39:33.602Z,101460.41
2022-08-03T19:42:12.157Z,101473.56
2022-08-03T19:45:11.243Z,101477.78
2022-08-03T19:47:49.216Z,101479.28
2022-08-03T19:50:19.092Z,101475.69
2022-08-03T19:52:50.600Z,101481.16
2022-08-03T19:55:20.574Z,101471.56
2022-08-03T19:57:53.548Z,101468.56
2022-08-03T20:00:30.487Z,101466.38
2022-08-03T20:03:06.387Z,101468.47
2022-08-03T20:05:52.142Z,101475.13
2022-08-03T20:08:23.020Z,101469.78
2022-08-03T20:10:53.769Z,101466.53
2022-08-03T20:13:22.160Z,101471.81
2022-08-03T20:15:56.810Z,101460.03
2022-08-03T20:18:25.531Z,101460.47
2022-08-03T20:20:58.729Z,101466.13
2022-08-03T20:26:29.614Z,101448.03
2022-08-03T20:29:08.970Z,101447.88
2022-08-03T20:31:37.701Z,101454.50
2022-08-03T20:34:07.388Z,101449.22
2022-08-03T20:36:38.113Z,101452.69
2022-08-03T20:39:07.722Z,101454.28
2022-08-03T20:41:39.093Z,101448.88
2022-08-03T20:44:07.926Z,101458.88
2022-08-03T20:46:50.175Z,101454.88
2022-08-03T20:49:24.723Z,101451.09
2022-08-03T20:51:54.982Z,101453.22
2022-08-03T20:54:29.500Z,101445.31
2022-08-03T20:57:03.446Z,101439.72
2022-08-03T20:59:50.641Z,101446.09
2022-08-03T21:02:30.323Z,101443.41
2022-08-03T21:05:03.424Z,101440.69
2022-08-03T21:08:06.099Z,101441.31
2022-08-03T21:10:39.831Z,101441.72
2022-08-03T21:12:58.400Z,101455.25
2022-08-03T21:13:06.784Z,101453.00
2022-08-03T21:16:12.012Z,101448.50
2022-08-03T21:18:47.047Z,101434.47
2022-08-03T21:21:18.518Z,101441.31
2022-08-03T21:23:52.532Z,101431.97
2022-08-03T21:26:24.067Z,101431.06
2022-08-03T21:28:56.343Z,101426.66
2022-08-03T21:31:26.683Z,101432.34
2022-08-03T21:33:57.798Z,101434.06
2022-08-03T21:36:30.008Z,101429.06
2022-08-03T21:39:00.476Z,101424.56
2022-08-03T21:41:33.684Z,101425.31
2022-08-03T21:44:06.162Z,101418.06
2022-08-03T21:46:38.445Z,101418.41
2022-08-03T21:50:04.785Z,101415.34
2022-08-03T21:52:00.384Z,101412.38
2022-08-03T21:54:35.105Z,101411.88
2022-08-03T21:57:09.962Z,101413.75
2022-08-03T21:59:45.624Z,101415.41
2022-08-03T22:02:24.174Z,101407.34
2022-08-03T22:04:56.970Z,101410.09
2022-08-03T22:07:27.331Z,101400.75
2022-08-03T22:09:57.147Z,101396.97
2022-08-03T22:12:27.476Z,101400.84
2022-08-03T22:15:00.783Z,101391.78
2022-08-03T22:17:56.214Z,101400.66
2022-08-03T22:20:21.268Z,101396.00
2022-08-03T22:22:55.757Z,101396.38
2022-08-03T22:25:29.866Z,101389.69
2022-08-03T22:28:00.437Z,101390.22
2022-08-03T22:30:31.574Z,101395.34
2022-08-03T22:33:02.511Z,101397.72
2022-08-03T22:35:44.348Z,101389.94
2022-08-03T22:38:18.134Z,101388.16
2022-08-03T22:40:49.889Z,101388.50
2022-08-03T22:43:18.670Z,101394.00
2022-08-03T22:46:09.464Z,101404.84
2022-08-03T22:48:41.392Z,101403.22
2022-08-03T22:51:10.339Z,101390.09
2022-08-03T22:53:39.925Z,101394.47
2022-08-03T22:56:08.864Z,101405.00
2022-08-03T22:58:37.102Z,101398.44
2022-08-03T23:01:08.940Z,101398.16
2022-08-03T23:04:00.151Z,101395.53
2022-08-03T23:06:35.939Z,101389.13
2022-08-03T23:09:09.064Z,101397.38
2022-08-03T23:11:45.417Z,101406.88
2022-08-03T23:14:19.649Z,101404.41
2022-08-03T23:16:51.372Z,101403.69
2022-08-03T23:19:25.096Z,101405.88
2022-08-03T23:22:02.913Z,101408.41
2022-08-03T23:24:35.876Z,101407.50
2022-08-03T23:27:06.362Z,101412.13
2022-08-03T23:29:37.330Z,101408.69
2022-08-03T23:32:08.720Z,101402.66
2022-08-03T23:34:58.197Z,101406.25
2022-08-03T23:37:27.033Z,101400.09
2022-08-03T23:39:57.950Z,101398.22
2022-08-03T23:42:27.936Z,101399.88
2022-08-03T23:45:05.857Z,101405.59
2022-08-03T23:47:45.981Z,101406.59
2022-08-03T23:50:15.608Z,101400.34
2022-08-03T23:53:01.061Z,101401.16
2022-08-03T23:55:53.275Z,101403.84
2022-08-03T23:58:41.618Z,101403.72
